Decoded Metar for CYRJ (ROBERVAL in QC, CANADA) (IATA:YRJ) | Meteo·Mobile Aviation Weather
aviador You're here:

CYRJ Decoded Metar

ROBERVAL in QC, CANADA
Report Time2019-10-18 13:00:00
UTC Time2019-10-18 13:15:54
Flight Rules mvfr MVFR
Wind310° at 13 Gusting to 20 kt
W.Decomp.*RWY 34: 12.7 kt HW 2.9 kt LCW
Visibility9999 m
Phenomena:Light Rain
Clouds:Few 015 Hf
Overcast 027 Hf
Expected CloudBase > 400 ft AGL from Temp-Dew spread
Ceiling2,700 ft
Temp06°C (ISA -8)
Dew Point05°C (93% RH)
AAT0.2°C
QNH1001 hPa
Density Alt174 ft
Elevation587 ft
Report Wrong Elevation
Raw Report
CYRJ 181300Z 31013G20KT 40SM -RA FEW015 OVC027 06/05 A2955 RMK
CF1SC8 CF TR PCPN VRY LGT SLP016=

Extra information for CYRJ:More info

Metar Taf Metar & Taf Last 4 Metars F.Rules Stats Wind Profile Meteogram Temp Stats Airport Information Weather charts Add Link Nearby VenuesMetar ALERT Operation Metar Decoded Social comments